createdAt,value
2019-04-06T00:00:31.682Z,61.13
2019-04-06T00:03:00.605Z,61.70
2019-04-06T00:05:29.524Z,65.67
2019-04-06T00:07:58.461Z,63.90
2019-04-06T00:10:27.538Z,65.40
2019-04-06T00:12:56.557Z,55.37
2019-04-06T00:15:25.482Z,61.53
2019-04-06T00:17:54.430Z,62.87
2019-04-06T00:20:23.459Z,65.20
2019-04-06T00:22:52.394Z,65.80
2019-04-06T00:25:23.389Z,62.63
2019-04-06T00:27:52.341Z,57.13
2019-04-06T00:30:22.303Z,56.37
2019-04-06T00:32:58.409Z,63.13
2019-04-06T00:35:27.387Z,60.90
2019-04-06T00:37:56.413Z,64.03
2019-04-06T00:40:25.367Z,61.50
2019-04-06T00:42:54.289Z,65.73
2019-04-06T00:45:23.291Z,62.77
2019-04-06T00:47:52.406Z,69.97
2019-04-06T00:50:21.466Z,65.77
2019-04-06T00:52:50.890Z,63.60
2019-04-06T00:55:19.902Z,59.80
2019-04-06T00:57:49.118Z,62.20
2019-04-06T01:00:18.286Z,62.60
2019-04-06T01:02:47.321Z,61.60
2019-04-06T01:05:16.663Z,62.33
2019-04-06T01:07:45.998Z,56.47
2019-04-06T01:10:15.270Z,62.07
2019-04-06T01:12:44.201Z,60.73
2019-04-06T01:15:13.282Z,60.80
2019-04-06T01:17:42.396Z,67.47
2019-04-06T01:20:11.476Z,68.17
2019-04-06T01:22:40.496Z,69.20
2019-04-06T01:25:09.863Z,63.30
2019-04-06T01:27:38.756Z,63.90
2019-04-06T01:30:08.157Z,63.00
2019-04-06T01:32:37.181Z,62.53
2019-04-06T01:35:06.414Z,57.73
2019-04-06T01:37:35.364Z,55.00
2019-04-06T01:40:04.905Z,54.90
2019-04-06T01:42:33.957Z,57.73
2019-04-06T01:45:02.963Z,58.33
2019-04-06T01:47:31.992Z,57.07
2019-04-06T01:50:00.927Z,59.50
2019-04-06T01:52:29.848Z,66.17
2019-04-06T01:54:59.307Z,63.33
2019-04-06T01:57:28.529Z,61.17
2019-04-06T01:59:57.752Z,53.20
2019-04-06T02:02:29.585Z,62.27
2019-04-06T02:04:58.614Z,58.37
2019-04-06T02:07:27.610Z,59.03
2019-04-06T02:09:56.713Z,57.33
2019-04-06T02:12:25.645Z,56.33
2019-04-06T02:14:54.676Z,62.43
2019-04-06T02:17:23.976Z,54.57
2019-04-06T02:19:52.960Z,59.30
2019-04-06T02:22:21.883Z,63.43
2019-04-06T02:24:50.825Z,57.37
2019-04-06T02:27:20.079Z,60.83
2019-04-06T02:30:09.335Z,58.57
2019-04-06T02:32:52.739Z,56.00
2019-04-06T02:35:31.936Z,59.97
2019-04-06T02:38:19.991Z,62.47
2019-04-06T02:40:58.660Z,53.80
2019-04-06T02:43:30.139Z,59.40
2019-04-06T02:45:59.260Z,58.33
2019-04-06T02:48:28.360Z,60.60
2019-04-06T02:50:58.067Z,60.90
2019-04-06T02:53:26.988Z,57.57
2019-04-06T02:55:56.074Z,65.20
2019-04-06T02:58:25.469Z,59.60
2019-04-06T03:00:54.444Z,66.23
2019-04-06T03:03:23.418Z,62.50
2019-04-06T03:05:52.467Z,65.27
2019-04-06T03:08:21.503Z,63.87
2019-04-06T03:10:50.813Z,65.67
2019-04-06T03:13:20.157Z,64.10
2019-04-06T03:15:49.285Z,67.43
2019-04-06T03:18:18.425Z,60.60
2019-04-06T03:20:47.383Z,59.33
2019-04-06T03:23:16.521Z,64.20
2019-04-06T03:25:45.570Z,68.87
2019-04-06T03:28:14.872Z,66.13
2019-04-06T03:30:43.917Z,61.43
2019-04-06T03:33:13.453Z,65.27
2019-04-06T03:35:47.675Z,64.80
2019-04-06T03:38:13.315Z,66.17
2019-04-06T03:40:42.304Z,65.83
2019-04-06T03:43:11.249Z,65.00
2019-04-06T03:45:40.187Z,63.63
2019-04-06T03:48:09.245Z,59.13
2019-04-06T03:50:38.162Z,65.07
2019-04-06T03:53:07.345Z,62.50
2019-04-06T03:55:36.717Z,61.90
2019-04-06T03:58:05.823Z,58.70
2019-04-06T04:00:34.816Z,63.90
2019-04-06T04:03:04.279Z,62.33
2019-04-06T04:05:33.364Z,59.13
2019-04-06T04:08:02.373Z,58.90
2019-04-06T04:10:36.194Z,59.37
2019-04-06T04:13:05.679Z,58.23
2019-04-06T04:15:34.854Z,57.80
2019-04-06T04:18:04.765Z,57.80
2019-04-06T04:20:33.891Z,58.10
2019-04-06T04:23:02.828Z,56.30
2019-04-06T04:25:31.771Z,51.67
2019-04-06T04:28:00.804Z,57.50
2019-04-06T04:30:32.939Z,51.73
2019-04-06T04:33:00.381Z,57.63
2019-04-06T04:35:29.365Z,51.77
2019-04-06T04:37:58.298Z,49.50
2019-04-06T04:40:27.251Z,49.73
2019-04-06T04:42:56.228Z,50.43
2019-04-06T04:45:25.594Z,48.97
2019-04-06T04:47:54.584Z,56.57
2019-04-06T04:50:23.608Z,48.50
2019-04-06T04:52:52.568Z,48.90
2019-04-06T04:55:21.593Z,46.87
2019-04-06T04:57:50.557Z,49.47
2019-04-06T05:00:19.669Z,47.43
2019-04-06T05:02:48.603Z,45.80
2019-04-06T05:05:18.096Z,49.90
2019-04-06T05:07:47.114Z,45.67
2019-04-06T05:10:16.115Z,48.90
2019-04-06T05:12:45.129Z,47.60
2019-04-06T05:15:16.227Z,46.40
2019-04-06T05:17:45.478Z,46.20
2019-04-06T05:20:14.563Z,43.60
2019-04-06T05:22:43.568Z,44.23
2019-04-06T05:25:12.652Z,43.60
2019-04-06T05:27:51.256Z,40.73
2019-04-06T05:30:12.662Z,40.97
2019-04-06T05:32:41.931Z,38.60
2019-04-06T05:35:11.670Z,39.37
2019-04-06T05:37:40.545Z,40.00
2019-04-06T05:40:10.223Z,39.63
2019-04-06T05:42:39.174Z,43.87
2019-04-06T05:45:08.511Z,42.07
2019-04-06T05:47:37.524Z,40.07
2019-04-06T05:50:07.656Z,41.63
2019-04-06T05:52:36.666Z,45.63
2019-04-06T05:55:06.017Z,49.40
2019-04-06T05:57:37.187Z,40.63
2019-04-06T06:00:09.725Z,36.27
2019-04-06T06:02:40.299Z,38.57
2019-04-06T06:05:08.606Z,39.30
2019-04-06T06:07:39.153Z,36.27
2019-04-06T06:10:08.469Z,40.00
2019-04-06T06:12:37.722Z,36.10
2019-04-06T06:15:07.241Z,32.50
2019-04-06T06:17:36.143Z,36.00
2019-04-06T06:20:06.179Z,35.30
2019-04-06T06:22:35.158Z,32.10
2019-04-06T06:25:05.000Z,34.00
2019-04-06T06:27:33.963Z,31.73
2019-04-06T06:30:02.935Z,30.33
2019-04-06T06:32:34.833Z,34.40
2019-04-06T06:35:04.318Z,33.53
2019-04-06T06:37:33.284Z,31.23
2019-04-06T06:40:02.458Z,33.67
2019-04-06T06:42:31.382Z,31.67
2019-04-06T06:45:00.528Z,30.70
2019-04-06T06:47:29.511Z,30.57
2019-04-06T06:49:58.630Z,32.90
2019-04-06T06:52:27.904Z,31.13
2019-04-06T06:54:56.766Z,34.20
2019-04-06T06:57:25.992Z,29.63
2019-04-06T06:59:55.075Z,34.63
2019-04-06T07:02:24.295Z,31.30
2019-04-06T07:04:53.223Z,33.70
2019-04-06T07:07:22.488Z,30.63
2019-04-06T07:09:51.672Z,33.50
2019-04-06T07:12:20.635Z,33.90
2019-04-06T07:14:50.068Z,30.80
2019-04-06T07:17:19.273Z,30.03
2019-04-06T07:19:48.418Z,27.80
2019-04-06T07:22:17.887Z,26.93
2019-04-06T07:24:47.003Z,28.43
2019-04-06T07:27:16.342Z,27.30
2019-04-06T07:29:45.529Z,24.20
2019-04-06T07:32:14.943Z,26.87
2019-04-06T07:34:44.440Z,29.23
2019-04-06T07:37:13.540Z,26.77
2019-04-06T07:39:42.492Z,27.07
2019-04-06T07:42:11.486Z,29.53
2019-04-06T07:44:40.428Z,24.00
2019-04-06T07:47:09.378Z,26.13
2019-04-06T07:49:38.506Z,27.73
2019-04-06T07:52:07.924Z,27.03
2019-04-06T07:54:36.844Z,26.63
2019-04-06T07:57:05.888Z,25.73
2019-04-06T07:59:34.891Z,23.05
2019-04-06T08:02:04.307Z,23.83
2019-04-06T08:04:33.639Z,28.15
2019-04-06T08:07:02.755Z,25.12
2019-04-06T08:09:31.938Z,23.75
2019-04-06T08:12:00.925Z,24.95
2019-04-06T08:14:30.275Z,23.30
2019-04-06T08:16:59.715Z,24.43
2019-04-06T08:19:28.785Z,23.90
2019-04-06T08:21:57.901Z,26.50
2019-04-06T08:24:26.955Z,26.00
2019-04-06T08:26:56.034Z,24.23
2019-04-06T08:29:25.008Z,29.15
2019-04-06T08:31:54.098Z,27.20
2019-04-06T08:34:22.973Z,24.57
2019-04-06T08:36:52.221Z,26.77
2019-04-06T08:39:21.201Z,30.60
2019-04-06T08:41:56.162Z,27.55
2019-04-06T08:44:25.752Z,27.80
2019-04-06T08:46:54.948Z,24.65
2019-04-06T08:49:24.000Z,30.77
2019-04-06T08:51:53.079Z,21.85
2019-04-06T08:54:22.135Z,25.08
2019-04-06T08:56:51.733Z,25.90
2019-04-06T08:59:20.996Z,29.55
2019-04-06T09:01:50.064Z,24.90
2019-04-06T09:04:18.980Z,23.73
2019-04-06T09:06:48.126Z,26.10
2019-04-06T09:09:17.100Z,25.02
2019-04-06T09:11:46.236Z,24.45
2019-04-06T09:14:15.219Z,25.40
2019-04-06T09:16:44.445Z,28.20
2019-04-06T09:19:13.431Z,23.25
2019-04-06T09:21:42.453Z,27.10
2019-04-06T09:24:11.403Z,24.97
2019-04-06T09:26:40.619Z,32.47
2019-04-06T09:29:09.766Z,25.77
2019-04-06T09:31:39.283Z,27.30
2019-04-06T09:34:08.352Z,26.60
2019-04-06T09:36:37.284Z,25.10
2019-04-06T09:39:07.348Z,27.77
2019-04-06T09:41:36.589Z,28.03
2019-04-06T09:44:07.651Z,26.97
2019-04-06T09:46:54.633Z,23.73
2019-04-06T09:49:41.643Z,26.27
2019-04-06T09:52:28.591Z,23.80
2019-04-06T09:55:07.670Z,24.97
2019-04-06T09:57:54.858Z,25.27
2019-04-06T10:00:49.224Z,27.73
2019-04-06T10:03:31.486Z,23.10
2019-04-06T10:06:18.055Z,26.80
2019-04-06T10:09:06.084Z,28.30
2019-04-06T10:11:52.355Z,24.50
2019-04-06T10:14:28.641Z,23.07
2019-04-06T10:17:15.504Z,23.43
2019-04-06T10:20:15.790Z,23.20
2019-04-06T10:22:54.014Z,23.30
2019-04-06T10:25:32.910Z,22.23
2019-04-06T10:28:12.470Z,23.57
2019-04-06T10:30:53.674Z,21.20
2019-04-06T10:33:41.754Z,23.53
2019-04-06T10:36:32.242Z,20.90
2019-04-06T10:39:26.084Z,25.70
2019-04-06T10:42:14.148Z,23.87
2019-04-06T10:45:08.225Z,20.10
2019-04-06T10:47:49.017Z,23.10
2019-04-06T10:50:47.071Z,25.03
2019-04-06T10:53:23.790Z,20.53
2019-04-06T10:56:08.502Z,21.77
2019-04-06T10:59:02.435Z,22.10
2019-04-06T11:01:42.439Z,19.57
2019-04-06T11:04:22.676Z,22.53
2019-04-06T11:07:19.692Z,23.83
2019-04-06T11:10:08.081Z,21.02
2019-04-06T11:12:44.792Z,20.90
2019-04-06T11:15:31.770Z,20.68
2019-04-06T11:18:10.664Z,20.75
2019-04-06T11:20:53.452Z,22.40
2019-04-06T11:23:38.504Z,19.80
2019-04-06T11:26:26.732Z,22.63
2019-04-06T11:29:14.778Z,22.90
2019-04-06T11:32:02.799Z,20.17
2019-04-06T11:35:02.021Z,20.30
2019-04-06T11:38:00.883Z,20.65
2019-04-06T11:40:46.783Z,25.17
2019-04-06T11:43:22.102Z,21.93
2019-04-06T11:45:56.832Z,23.50
2019-04-06T11:48:47.663Z,19.82
2019-04-06T11:51:31.493Z,20.30
2019-04-06T11:54:19.665Z,19.55
2019-04-06T11:56:54.386Z,22.00
2019-04-06T11:59:47.599Z,21.75
2019-04-06T12:02:31.410Z,23.42
2019-04-06T12:05:09.976Z,21.37
2019-04-06T12:07:56.890Z,20.37
2019-04-06T12:10:41.149Z,19.52
2019-04-06T12:13:23.232Z,22.13
2019-04-06T12:16:14.730Z,20.35
2019-04-06T12:18:56.444Z,23.27
2019-04-06T12:21:40.553Z,19.73
2019-04-06T12:24:26.501Z,25.95
2019-04-06T12:27:06.419Z,17.67
2019-04-06T12:29:57.600Z,19.52
2019-04-06T12:32:41.072Z,21.35
2019-04-06T12:35:19.603Z,18.15
2019-04-06T12:38:01.619Z,21.23
2019-04-06T12:40:44.631Z,19.10
2019-04-06T12:43:31.036Z,16.87
2019-04-06T12:46:31.737Z,20.85
2019-04-06T12:49:23.081Z,17.57
2019-04-06T12:52:04.512Z,20.12
2019-04-06T12:54:50.035Z,15.28
2019-04-06T12:57:27.994Z,17.00
2019-04-06T13:00:21.903Z,16.70
2019-04-06T13:03:10.208Z,14.95
2019-04-06T13:05:51.112Z,15.58
2019-04-06T13:08:28.146Z,15.38
2019-04-06T13:11:14.929Z,16.12
2019-04-06T13:13:57.445Z,16.37
2019-04-06T13:16:34.797Z,17.02
2019-04-06T13:19:38.323Z,16.70
2019-04-06T13:22:32.390Z,19.40
2019-04-06T13:25:11.499Z,16.32
2019-04-06T13:27:58.437Z,18.00
2019-04-06T13:31:02.564Z,15.77
2019-04-06T13:33:33.039Z,18.37
2019-04-06T13:36:14.545Z,15.10
2019-04-06T13:39:05.725Z,14.00
2019-04-06T13:41:48.886Z,16.82
2019-04-06T13:44:36.905Z,15.32
2019-04-06T13:47:24.967Z,12.45
2019-04-06T13:50:13.111Z,17.40
2019-04-06T13:53:07.152Z,15.08
2019-04-06T13:55:58.607Z,18.77
2019-04-06T13:58:46.485Z,15.72
2019-04-06T14:01:28.945Z,12.18
2019-04-06T14:04:22.817Z,14.78
2019-04-06T14:07:11.333Z,13.27
2019-04-06T14:09:58.409Z,16.80
2019-04-06T14:12:52.722Z,13.38
2019-04-06T14:15:40.075Z,15.30
2019-04-06T14:18:40.881Z,15.25
2019-04-06T14:21:35.410Z,13.15
2019-04-06T14:24:23.871Z,13.93
2019-04-06T14:27:10.167Z,13.13
2019-04-06T14:29:45.221Z,11.70
2019-04-06T14:32:42.285Z,14.18
2019-04-06T14:35:30.512Z,16.90
2019-04-06T14:38:08.579Z,12.70
2019-04-06T14:40:47.932Z,15.77
2019-04-06T14:43:33.303Z,12.33
2019-04-06T14:46:40.055Z,14.97
2019-04-06T14:49:33.084Z,11.20
2019-04-06T14:52:30.456Z,12.57
2019-04-06T14:55:24.523Z,14.40
2019-04-06T14:58:10.544Z,11.30
2019-04-06T15:00:50.131Z,11.77
2019-04-06T15:03:34.935Z,11.17
2019-04-06T15:06:29.281Z,11.70
2019-04-06T15:09:06.426Z,14.90
2019-04-06T15:12:00.564Z,11.93
2019-04-06T15:14:59.363Z,11.50
2019-04-06T15:17:40.499Z,11.07
2019-04-06T15:20:19.489Z,19.60
2019-04-06T15:23:05.867Z,12.33
2019-04-06T15:26:00.110Z,11.77
2019-04-06T15:28:51.930Z,13.80
2019-04-06T15:31:34.921Z,12.77
2019-04-06T15:34:22.905Z,11.60
2019-04-06T15:37:06.745Z,12.30
2019-04-06T15:39:53.631Z,12.97
2019-04-06T15:42:35.209Z,11.27
2019-04-06T15:45:20.087Z,11.83
2019-04-06T15:47:59.560Z,13.07
2019-04-06T15:51:06.251Z,11.27
2019-04-06T15:53:51.038Z,11.07
2019-04-06T15:56:26.868Z,13.67
2019-04-06T15:59:04.180Z,14.13
2019-04-06T16:01:58.506Z,12.83
2019-04-06T16:04:25.315Z,12.33
2019-04-06T16:07:30.121Z,12.67
2019-04-06T16:10:15.649Z,10.40
2019-04-06T16:13:02.497Z,15.13
2019-04-06T16:15:52.616Z,11.83
2019-04-06T16:18:47.337Z,17.67
2019-04-06T16:21:35.640Z,14.33
2019-04-06T16:24:15.106Z,11.67
2019-04-06T16:26:53.576Z,17.60
2019-04-06T16:29:39.863Z,14.07
2019-04-06T16:32:33.692Z,13.67
2019-04-06T16:35:29.633Z,13.40
2019-04-06T16:38:07.734Z,12.83
2019-04-06T16:41:00.558Z,12.53
2019-04-06T16:43:47.174Z,12.27
2019-04-06T16:46:34.041Z,12.40
2019-04-06T16:49:34.279Z,10.93
2019-04-06T16:52:16.799Z,12.10
2019-04-06T16:55:10.991Z,12.33
2019-04-06T16:57:59.277Z,12.03
2019-04-06T17:00:38.818Z,13.67
2019-04-06T17:03:21.569Z,10.93
2019-04-06T17:06:08.499Z,11.07
2019-04-06T17:08:47.010Z,12.20
2019-04-06T17:11:28.244Z,10.43
2019-04-06T17:14:28.662Z,14.77
2019-04-06T17:17:25.764Z,18.47
2019-04-06T17:20:05.744Z,13.83
2019-04-06T17:22:47.199Z,11.93
2019-04-06T17:25:41.475Z,10.83
2019-04-06T17:28:28.819Z,11.00
2019-04-06T17:31:20.056Z,13.13
2019-04-06T17:34:17.656Z,10.67
2019-04-06T17:37:11.614Z,13.10
2019-04-06T17:39:54.163Z,13.23
2019-04-06T17:42:35.046Z,13.17
2019-04-06T17:45:30.946Z,13.10
2019-04-06T17:48:18.402Z,11.30
2019-04-06T17:51:05.396Z,17.43
2019-04-06T17:53:49.233Z,14.93
2019-04-06T17:56:30.718Z,15.43
2019-04-06T17:59:17.570Z,17.10
2019-04-06T18:02:05.922Z,14.57
2019-04-06T18:04:47.845Z,19.33
2019-04-06T18:07:36.011Z,23.43
2019-04-06T18:10:16.219Z,27.53
2019-04-06T18:12:54.848Z,25.87
2019-04-06T18:15:24.063Z,29.43
2019-04-06T18:17:53.273Z,32.73
2019-04-06T18:20:22.320Z,39.27
2019-04-06T18:22:51.652Z,35.80
2019-04-06T18:25:20.979Z,33.13
2019-04-06T18:27:50.533Z,33.50
2019-04-06T18:30:20.200Z,31.47
2019-04-06T18:33:00.744Z,28.10
2019-04-06T18:35:26.149Z,24.50
2019-04-06T18:38:10.067Z,25.83
2019-04-06T18:40:39.162Z,25.83
2019-04-06T18:43:08.817Z,22.03
2019-04-06T18:45:37.974Z,25.10
2019-04-06T18:48:06.991Z,23.47
2019-04-06T18:50:38.300Z,22.03
2019-04-06T18:53:06.635Z,21.13
2019-04-06T18:55:35.950Z,28.73
2019-04-06T18:58:11.233Z,32.10
2019-04-06T19:00:36.024Z,29.87
2019-04-06T19:03:12.569Z,23.30
2019-04-06T19:05:35.751Z,23.23
2019-04-06T19:08:05.224Z,22.43
2019-04-06T19:10:34.312Z,25.70
2019-04-06T19:13:04.390Z,23.30
2019-04-06T19:15:33.617Z,24.10
2019-04-06T19:18:02.685Z,20.50
2019-04-06T19:20:31.944Z,25.30
2019-04-06T19:23:01.476Z,22.77
2019-04-06T19:25:31.812Z,19.37
2019-04-06T19:28:01.034Z,21.17
2019-04-06T19:30:30.579Z,19.47
2019-04-06T19:32:59.910Z,20.37
2019-04-06T19:35:29.261Z,18.23
2019-04-06T19:37:58.442Z,19.90
2019-04-06T19:40:27.446Z,19.77
2019-04-06T19:42:57.466Z,20.80
2019-04-06T19:45:26.446Z,23.50
2019-04-06T19:47:56.601Z,20.17
2019-04-06T19:50:26.188Z,19.47
2019-04-06T19:52:55.387Z,18.03
2019-04-06T19:55:24.593Z,16.43
2019-04-06T19:57:53.724Z,19.13
2019-04-06T20:00:23.895Z,17.03
2019-04-06T20:02:52.962Z,21.77
2019-04-06T20:05:22.191Z,23.00
2019-04-06T20:07:51.450Z,19.80
2019-04-06T20:10:20.859Z,18.63
2019-04-06T20:12:50.320Z,20.07
2019-04-06T20:15:19.797Z,18.57
2019-04-06T20:17:48.770Z,20.00
2019-04-06T20:20:18.673Z,18.67
2019-04-06T20:22:48.407Z,20.00
2019-04-06T20:25:17.775Z,17.93
2019-04-06T20:27:46.821Z,18.30
2019-04-06T20:30:16.189Z,20.40
2019-04-06T20:32:45.704Z,20.53
2019-04-06T20:35:15.690Z,19.83
2019-04-06T20:37:44.707Z,17.60
2019-04-06T20:40:14.157Z,22.23
2019-04-06T20:42:43.280Z,25.63
2019-04-06T20:45:13.072Z,23.97
2019-04-06T20:47:42.161Z,21.60
2019-04-06T20:50:12.132Z,22.40
2019-04-06T20:52:41.597Z,24.70
2019-04-06T20:55:11.133Z,25.10
2019-04-06T20:57:40.543Z,20.70
2019-04-06T21:00:11.166Z,25.03
2019-04-06T21:02:40.312Z,24.93
2019-04-06T21:05:09.493Z,21.00
2019-04-06T21:07:38.494Z,23.43
2019-04-06T21:10:07.869Z,18.60
2019-04-06T21:12:36.967Z,21.87
2019-04-06T21:15:16.899Z,23.10
2019-04-06T21:17:37.329Z,20.77
2019-04-06T21:20:07.363Z,24.70
2019-04-06T21:22:36.735Z,19.93
2019-04-06T21:25:06.970Z,22.07
2019-04-06T21:27:36.315Z,20.23
2019-04-06T21:30:06.375Z,21.13
2019-04-06T21:32:36.028Z,23.20
2019-04-06T21:35:05.769Z,24.80
2019-04-06T21:37:34.859Z,21.97
2019-04-06T21:40:04.067Z,22.37
2019-04-06T21:42:33.141Z,26.63
2019-04-06T21:45:02.095Z,24.67
2019-04-06T21:47:31.152Z,28.90
2019-04-06T21:50:00.292Z,26.97
2019-04-06T21:52:29.724Z,23.83
2019-04-06T21:54:59.153Z,25.37
2019-04-06T21:57:28.176Z,21.43
2019-04-06T21:59:57.443Z,21.00
2019-04-06T22:02:26.581Z,24.63
2019-04-06T22:04:55.631Z,24.33
2019-04-06T22:07:25.495Z,22.53
2019-04-06T22:09:54.874Z,24.50
2019-04-06T22:12:25.013Z,27.53
2019-04-06T22:14:54.242Z,22.73
2019-04-06T22:17:23.294Z,23.33
2019-04-06T22:19:52.687Z,19.47
2019-04-06T22:22:22.248Z,26.20
2019-04-06T22:24:51.838Z,22.97
2019-04-06T22:27:21.226Z,25.67
2019-04-06T22:29:50.182Z,20.63
2019-04-06T22:32:19.566Z,21.63
2019-04-06T22:34:48.938Z,21.60
2019-04-06T22:37:17.944Z,23.27
2019-04-06T22:39:46.929Z,23.13
2019-04-06T22:42:15.868Z,20.03
2019-04-06T22:44:45.219Z,23.10
2019-04-06T22:47:14.419Z,28.93
2019-04-06T22:49:43.423Z,22.77
2019-04-06T22:52:12.844Z,22.03
2019-04-06T22:54:41.873Z,23.67
2019-04-06T22:57:10.814Z,20.57
2019-04-06T22:59:40.399Z,23.37
2019-04-06T23:02:09.846Z,24.53
2019-04-06T23:04:54.130Z,24.20
2019-04-06T23:07:24.875Z,21.70
2019-04-06T23:09:54.161Z,24.77
2019-04-06T23:12:23.474Z,21.23
2019-04-06T23:14:53.668Z,25.77
2019-04-06T23:17:23.084Z,27.83
2019-04-06T23:19:52.288Z,27.60
2019-04-06T23:22:21.785Z,25.83
2019-04-06T23:24:51.387Z,25.03
2019-04-06T23:27:20.507Z,26.27
2019-04-06T23:29:49.667Z,23.63
2019-04-06T23:32:18.725Z,22.27
2019-04-06T23:34:58.357Z,23.70
2019-04-06T23:37:18.479Z,20.40
2019-04-06T23:39:48.187Z,22.90
2019-04-06T23:42:17.443Z,25.80
2019-04-06T23:44:46.513Z,23.83
2019-04-06T23:47:16.036Z,26.10
2019-04-06T23:49:46.188Z,23.27
2019-04-06T23:52:15.555Z,25.63
2019-04-06T23:54:44.665Z,23.60
2019-04-06T23:57:14.129Z,23.47
2019-04-06T23:59:43.347Z,21.60
